sensor_id;sensor_type;location;lat;lon;timestamp;pressure;altitude;pressure_sealevel;temperature;humidity
14253;BME280;7210;51.502;10.722;2023-04-03T00:01:08;101083.03;;;1.68;83.54
14253;BME280;7210;51.502;10.722;2023-04-03T00:03:36;101093.69;;;1.65;83.69
14253;BME280;7210;51.502;10.722;2023-04-03T00:06:10;101085.47;;;1.60;83.66
14253;BME280;7210;51.502;10.722;2023-04-03T00:08:39;101089.97;;;1.58;83.73
14253;BME280;7210;51.502;10.722;2023-04-03T00:11:07;101082.44;;;1.55;84.14
14253;BME280;7210;51.502;10.722;2023-04-03T00:13:34;101078.13;;;1.45;84.16
14253;BME280;7210;51.502;10.722;2023-04-03T00:16:01;101069.34;;;1.36;84.33
14253;BME280;7210;51.502;10.722;2023-04-03T00:18:30;101082.63;;;1.33;84.42
14253;BME280;7210;51.502;10.722;2023-04-03T00:20:58;101095.41;;;1.36;84.26
14253;BME280;7210;51.502;10.722;2023-04-03T00:23:25;101078.50;;;1.31;84.95
14253;BME280;7210;51.502;10.722;2023-04-03T00:25:53;101100.72;;;1.35;84.51
14253;BME280;7210;51.502;10.722;2023-04-03T00:28:20;101083.69;;;1.31;85.00
14253;BME280;7210;51.502;10.722;2023-04-03T00:30:50;101084.09;;;1.26;84.72
14253;BME280;7210;51.502;10.722;2023-04-03T00:33:17;101099.31;;;1.31;85.20
14253;BME280;7210;51.502;10.722;2023-04-03T00:35:52;101092.22;;;1.33;84.66
14253;BME280;7210;51.502;10.722;2023-04-03T00:38:19;101089.47;;;1.34;85.22
14253;BME280;7210;51.502;10.722;2023-04-03T00:40:48;101080.16;;;1.32;85.11
14253;BME280;7210;51.502;10.722;2023-04-03T00:43:20;101083.59;;;1.32;84.84
14253;BME280;7210;51.502;10.722;2023-04-03T00:45:49;101087.84;;;1.33;84.80
14253;BME280;7210;51.502;10.722;2023-04-03T00:48:20;101069.44;;;1.25;85.03
14253;BME280;7210;51.502;10.722;2023-04-03T00:50:52;101072.72;;;1.27;85.18
14253;BME280;7210;51.502;10.722;2023-04-03T00:53:24;101064.50;;;1.22;85.29
14253;BME280;7210;51.502;10.722;2023-04-03T00:55:55;101086.19;;;1.32;84.82
14253;BME280;7210;51.502;10.722;2023-04-03T00:58:30;101074.13;;;1.31;85.14
14253;BME280;7210;51.502;10.722;2023-04-03T01:01:05;101079.31;;;1.31;84.88
14253;BME280;7210;51.502;10.722;2023-04-03T01:03:34;101057.09;;;1.27;85.00
14253;BME280;7210;51.502;10.722;2023-04-03T01:06:05;101071.50;;;1.31;84.92
14253;BME280;7210;51.502;10.722;2023-04-03T01:08:33;101068.91;;;1.31;85.24
14253;BME280;7210;51.502;10.722;2023-04-03T01:11:00;101048.34;;;1.28;84.87
14253;BME280;7210;51.502;10.722;2023-04-03T01:13:30;101041.63;;;1.26;84.90
14253;BME280;7210;51.502;10.722;2023-04-03T01:16:01;101052.84;;;1.26;84.94
14253;BME280;7210;51.502;10.722;2023-04-03T01:18:31;101033.47;;;1.19;84.91
14253;BME280;7210;51.502;10.722;2023-04-03T01:21:53;101038.44;;;1.22;85.22
14253;BME280;7210;51.502;10.722;2023-04-03T01:24:35;101029.25;;;1.18;84.86
14253;BME280;7210;51.502;10.722;2023-04-03T01:27:10;101022.50;;;1.16;85.12
14253;BME280;7210;51.502;10.722;2023-04-03T01:29:38;101016.78;;;1.12;84.84
14253;BME280;7210;51.502;10.722;2023-04-03T01:32:07;101014.28;;;1.11;85.21
14253;BME280;7210;51.502;10.722;2023-04-03T01:34:34;101008.63;;;1.06;85.27
14253;BME280;7210;51.502;10.722;2023-04-03T01:37:01;101011.00;;;1.09;85.07
14253;BME280;7210;51.502;10.722;2023-04-03T01:39:28;101015.38;;;1.08;85.10
14253;BME280;7210;51.502;10.722;2023-04-03T01:41:56;101010.16;;;1.08;85.44
14253;BME280;7210;51.502;10.722;2023-04-03T01:44:30;101005.22;;;1.05;85.01
14253;BME280;7210;51.502;10.722;2023-04-03T01:46:57;100998.63;;;1.01;85.13
14253;BME280;7210;51.502;10.722;2023-04-03T01:49:27;101012.59;;;1.00;85.48
14253;BME280;7210;51.502;10.722;2023-04-03T01:51:55;100997.25;;;0.97;85.02
14253;BME280;7210;51.502;10.722;2023-04-03T01:54:24;100998.19;;;0.96;85.27
14253;BME280;7210;51.502;10.722;2023-04-03T01:56:51;101005.31;;;0.94;85.14
14253;BME280;7210;51.502;10.722;2023-04-03T01:59:20;101015.03;;;0.92;85.24
14253;BME280;7210;51.502;10.722;2023-04-03T02:01:50;101007.63;;;0.88;85.42
14253;BME280;7210;51.502;10.722;2023-04-03T02:07:09;101008.06;;;0.72;85.56
14253;BME280;7210;51.502;10.722;2023-04-03T02:09:36;101015.47;;;0.67;85.42
14253;BME280;7210;51.502;10.722;2023-04-03T02:12:03;101019.25;;;0.63;86.16
14253;BME280;7210;51.502;10.722;2023-04-03T02:17:23;101014.75;;;0.45;86.22
14253;BME280;7210;51.502;10.722;2023-04-03T02:19:50;101000.31;;;0.31;85.87
14253;BME280;7210;51.502;10.722;2023-04-03T02:22:18;101015.97;;;0.20;86.61
14253;BME280;7210;51.502;10.722;2023-04-03T02:24:46;101038.66;;;0.18;86.82
14253;BME280;7210;51.502;10.722;2023-04-03T02:27:13;101047.66;;;0.14;86.96
14253;BME280;7210;51.502;10.722;2023-04-03T02:29:40;101059.97;;;0.12;87.17
14253;BME280;7210;51.502;10.722;2023-04-03T02:32:08;101056.91;;;0.07;87.35
14253;BME280;7210;51.502;10.722;2023-04-03T02:34:35;101067.41;;;0.06;87.60
14253;BME280;7210;51.502;10.722;2023-04-03T02:37:04;101073.84;;;0.02;87.55
14253;BME280;7210;51.502;10.722;2023-04-03T02:39:34;101081.75;;;0.00;87.95
14253;BME280;7210;51.502;10.722;2023-04-03T02:42:02;101080.34;;;-0.03;88.37
14253;BME280;7210;51.502;10.722;2023-04-03T02:44:30;101092.41;;;-0.03;88.56
14253;BME280;7210;51.502;10.722;2023-04-03T02:46:57;101075.63;;;-0.09;88.34
14253;BME280;7210;51.502;10.722;2023-04-03T02:49:24;101062.44;;;-0.17;88.86
14253;BME280;7210;51.502;10.722;2023-04-03T02:51:55;101070.81;;;-0.25;88.97
14253;BME280;7210;51.502;10.722;2023-04-03T02:54:22;101060.56;;;-0.37;89.06
14253;BME280;7210;51.502;10.722;2023-04-03T02:56:57;101088.31;;;-0.27;89.32
14253;BME280;7210;51.502;10.722;2023-04-03T02:59:24;101092.44;;;-0.24;89.23
14253;BME280;7210;51.502;10.722;2023-04-03T03:01:51;101098.59;;;-0.25;89.54
14253;BME280;7210;51.502;10.722;2023-04-03T03:04:19;101090.78;;;-0.25;89.57
14253;BME280;7210;51.502;10.722;2023-04-03T03:06:46;101092.66;;;-0.27;89.39
14253;BME280;7210;51.502;10.722;2023-04-03T03:09:14;101099.66;;;-0.28;89.80
14253;BME280;7210;51.502;10.722;2023-04-03T03:11:42;101089.38;;;-0.29;89.85
14253;BME280;7210;51.502;10.722;2023-04-03T03:14:10;101113.44;;;-0.16;90.35
14253;BME280;7210;51.502;10.722;2023-04-03T03:16:37;101117.91;;;-0.08;90.07
14253;BME280;7210;51.502;10.722;2023-04-03T03:19:05;101105.25;;;-0.01;89.95
14253;BME280;7210;51.502;10.722;2023-04-03T03:21:32;101100.41;;;0.05;90.05
14253;BME280;7210;51.502;10.722;2023-04-03T03:24:01;101088.09;;;0.07;89.63
14253;BME280;7210;51.502;10.722;2023-04-03T03:26:28;101109.09;;;0.15;89.43
14253;BME280;7210;51.502;10.722;2023-04-03T03:28:56;101093.03;;;0.21;89.41
14253;BME280;7210;51.502;10.722;2023-04-03T03:31:25;101070.81;;;0.17;88.89
14253;BME280;7210;51.502;10.722;2023-04-03T03:33:52;101049.13;;;0.07;88.58
14253;BME280;7210;51.502;10.722;2023-04-03T03:36:19;101049.22;;;0.06;89.08
14253;BME280;7210;51.502;10.722;2023-04-03T03:38:46;101040.16;;;0.00;88.97
14253;BME280;7210;51.502;10.722;2023-04-03T03:41:13;101031.91;;;-0.05;89.06
14253;BME280;7210;51.502;10.722;2023-04-03T03:43:43;101039.25;;;-0.09;88.97
14253;BME280;7210;51.502;10.722;2023-04-03T03:46:12;101033.59;;;-0.14;89.43
14253;BME280;7210;51.502;10.722;2023-04-03T03:48:41;101035.50;;;-0.16;89.41
14253;BME280;7210;51.502;10.722;2023-04-03T03:51:08;101041.88;;;-0.20;89.13
14253;BME280;7210;51.502;10.722;2023-04-03T03:53:36;101035.50;;;-0.27;89.41
14253;BME280;7210;51.502;10.722;2023-04-03T03:56:07;101033.53;;;-0.35;89.78
14253;BME280;7210;51.502;10.722;2023-04-03T03:58:36;101031.31;;;-0.39;89.76
14253;BME280;7210;51.502;10.722;2023-04-03T04:01:05;101042.19;;;-0.45;89.38
14253;BME280;7210;51.502;10.722;2023-04-03T04:03:39;101051.16;;;-0.49;89.83
14253;BME280;7210;51.502;10.722;2023-04-03T04:06:09;101050.00;;;-0.56;90.45
14253;BME280;7210;51.502;10.722;2023-04-03T04:08:36;101064.03;;;-0.59;90.24
14253;BME280;7210;51.502;10.722;2023-04-03T04:11:06;101054.03;;;-0.63;90.67
14253;BME280;7210;51.502;10.722;2023-04-03T04:13:34;101052.13;;;-0.72;90.44
14253;BME280;7210;51.502;10.722;2023-04-03T04:16:01;101058.63;;;-0.78;90.96
14253;BME280;7210;51.502;10.722;2023-04-03T04:18:29;101048.84;;;-0.85;91.07
14253;BME280;7210;51.502;10.722;2023-04-03T04:20:58;101045.75;;;-0.90;90.78
14253;BME280;7210;51.502;10.722;2023-04-03T04:23:25;101059.09;;;-0.95;91.37
14253;BME280;7210;51.502;10.722;2023-04-03T04:25:53;101062.03;;;-0.99;91.19
14253;BME280;7210;51.502;10.722;2023-04-03T04:28:21;101066.78;;;-1.04;91.28
14253;BME280;7210;51.502;10.722;2023-04-03T04:30:51;101074.56;;;-1.04;91.89
14253;BME280;7210;51.502;10.722;2023-04-03T04:33:21;101082.56;;;-1.07;92.35
14253;BME280;7210;51.502;10.722;2023-04-03T04:35:48;101078.56;;;-1.11;92.61
14253;BME280;7210;51.502;10.722;2023-04-03T04:38:19;101078.06;;;-1.16;92.31
14253;BME280;7210;51.502;10.722;2023-04-03T04:40:48;101082.31;;;-1.15;92.38
14253;BME280;7210;51.502;10.722;2023-04-03T04:43:16;101104.50;;;-1.11;93.27
14253;BME280;7210;51.502;10.722;2023-04-03T04:45:47;101090.19;;;-1.17;93.39
14253;BME280;7210;51.502;10.722;2023-04-03T04:48:18;101100.72;;;-1.18;93.75
14253;BME280;7210;51.502;10.722;2023-04-03T04:50:46;101104.25;;;-1.19;93.44
14253;BME280;7210;51.502;10.722;2023-04-03T04:53:13;101111.44;;;-1.23;93.99
14253;BME280;7210;51.502;10.722;2023-04-03T04:55:43;101103.25;;;-1.29;93.60
14253;BME280;7210;51.502;10.722;2023-04-03T04:58:13;101097.47;;;-1.33;93.95
14253;BME280;7210;51.502;10.722;2023-04-03T05:00:41;101105.72;;;-1.39;94.05
14253;BME280;7210;51.502;10.722;2023-04-03T05:03:10;101103.47;;;-1.43;94.32
14253;BME280;7210;51.502;10.722;2023-04-03T05:05:37;101113.16;;;-1.34;94.36
14253;BME280;7210;51.502;10.722;2023-04-03T05:08:05;101126.84;;;-1.32;95.34
14253;BME280;7210;51.502;10.722;2023-04-03T05:10:34;101123.53;;;-1.34;95.46
14253;BME280;7210;51.502;10.722;2023-04-03T05:13:03;101124.59;;;-1.37;95.55
14253;BME280;7210;51.502;10.722;2023-04-03T05:15:30;101128.94;;;-1.37;95.72
14253;BME280;7210;51.502;10.722;2023-04-03T05:17:57;101124.69;;;-1.38;95.96
14253;BME280;7210;51.502;10.722;2023-04-03T05:20:25;101123.16;;;-1.41;96.01
14253;BME280;7210;51.502;10.722;2023-04-03T05:22:52;101130.81;;;-1.39;96.15
14253;BME280;7210;51.502;10.722;2023-04-03T05:25:20;101118.44;;;-1.47;96.60
14253;BME280;7210;51.502;10.722;2023-04-03T05:27:47;101135.78;;;-1.36;97.58
14253;BME280;7210;51.502;10.722;2023-04-03T05:30:16;101137.44;;;-1.35;97.54
14253;BME280;7210;51.502;10.722;2023-04-03T05:32:45;101141.97;;;-1.26;97.91
14253;BME280;7210;51.502;10.722;2023-04-03T05:35:19;101143.38;;;-1.22;97.78
14253;BME280;7210;51.502;10.722;2023-04-03T05:37:50;101169.38;;;-1.00;97.86
14253;BME280;7210;51.502;10.722;2023-04-03T05:40:18;101169.38;;;-0.89;98.54
14253;BME280;7210;51.502;10.722;2023-04-03T05:42:50;101164.69;;;-0.84;98.46
14253;BME280;7210;51.502;10.722;2023-04-03T05:45:22;101159.03;;;-0.78;98.23
14253;BME280;7210;51.502;10.722;2023-04-03T05:47:50;101164.59;;;-0.72;98.51
14253;BME280;7210;51.502;10.722;2023-04-03T05:50:19;101154.56;;;-0.65;99.01
14253;BME280;7210;51.502;10.722;2023-04-03T05:52:51;101153.38;;;-0.61;98.48
14253;BME280;7210;51.502;10.722;2023-04-03T05:55:25;101150.22;;;-0.54;98.80
14253;BME280;7210;51.502;10.722;2023-04-03T05:57:53;101151.50;;;-0.48;98.51
14253;BME280;7210;51.502;10.722;2023-04-03T06:00:22;101138.28;;;-0.45;98.62
14253;BME280;7210;51.502;10.722;2023-04-03T06:02:59;101136.97;;;-0.40;98.69
14253;BME280;7210;51.502;10.722;2023-04-03T06:05:26;101132.34;;;-0.36;98.24
14253;BME280;7210;51.502;10.722;2023-04-03T06:07:53;101140.75;;;-0.33;98.29
14253;BME280;7210;51.502;10.722;2023-04-03T06:10:21;101152.91;;;-0.22;98.25
14253;BME280;7210;51.502;10.722;2023-04-03T06:12:50;101145.59;;;-0.17;98.06
14253;BME280;7210;51.502;10.722;2023-04-03T06:15:17;101142.72;;;-0.03;97.50
14253;BME280;7210;51.502;10.722;2023-04-03T06:17:46;101137.50;;;0.07;97.10
14253;BME280;7210;51.502;10.722;2023-04-03T06:20:14;101136.53;;;0.19;96.65
14253;BME280;7210;51.502;10.722;2023-04-03T06:22:43;101117.59;;;0.28;96.02
14253;BME280;7210;51.502;10.722;2023-04-03T06:25:11;101122.94;;;0.47;95.60
14253;BME280;7210;51.502;10.722;2023-04-03T06:27:38;101104.91;;;0.55;95.03
14253;BME280;7210;51.502;10.722;2023-04-03T06:30:07;101087.53;;;0.76;93.80
14253;BME280;7210;51.502;10.722;2023-04-03T06:32:34;101056.38;;;0.86;92.62
14253;BME280;7210;51.502;10.722;2023-04-03T06:35:04;101039.47;;;1.01;91.56
14253;BME280;7210;51.502;10.722;2023-04-03T06:37:32;101015.38;;;1.08;90.94
14253;BME280;7210;51.502;10.722;2023-04-03T06:39:59;101000.59;;;1.18;89.90
14253;BME280;7210;51.502;10.722;2023-04-03T06:42:27;100978.41;;;1.24;89.03
14253;BME280;7210;51.502;10.722;2023-04-03T06:45:00;100956.63;;;1.25;88.51
14253;BME280;7210;51.502;10.722;2023-04-03T06:47:27;100942.25;;;1.30;88.02
14253;BME280;7210;51.502;10.722;2023-04-03T06:49:54;100932.50;;;1.32;86.93
14253;BME280;7210;51.502;10.722;2023-04-03T06:52:23;100930.88;;;1.41;86.53
14253;BME280;7210;51.502;10.722;2023-04-03T06:54:50;100918.13;;;1.47;86.06
14253;BME280;7210;51.502;10.722;2023-04-03T06:57:23;100913.91;;;1.56;85.54
14253;BME280;7210;51.502;10.722;2023-04-03T06:59:50;100902.91;;;1.62;85.21
14253;BME280;7210;51.502;10.722;2023-04-03T07:02:17;100883.31;;;1.67;84.54
14253;BME280;7210;51.502;10.722;2023-04-03T07:04:44;100888.22;;;1.70;84.74
14253;BME280;7210;51.502;10.722;2023-04-03T07:07:11;100885.63;;;1.80;84.21
14253;BME280;7210;51.502;10.722;2023-04-03T07:09:40;100886.84;;;1.85;83.83
14253;BME280;7210;51.502;10.722;2023-04-03T07:12:08;100873.25;;;1.91;83.70
14253;BME280;7210;51.502;10.722;2023-04-03T07:14:35;100865.16;;;1.94;83.22
14253;BME280;7210;51.502;10.722;2023-04-03T07:17:02;100861.31;;;1.98;82.97
14253;BME280;7210;51.502;10.722;2023-04-03T07:19:30;100859.09;;;2.03;82.92
14253;BME280;7210;51.502;10.722;2023-04-03T07:21:57;100881.31;;;2.07;83.32
14253;BME280;7210;51.502;10.722;2023-04-03T07:24:24;100869.94;;;2.08;82.38
14253;BME280;7210;51.502;10.722;2023-04-03T07:26:53;100867.84;;;2.12;82.31
14253;BME280;7210;51.502;10.722;2023-04-03T07:29:20;100874.28;;;2.17;82.50
14253;BME280;7210;51.502;10.722;2023-04-03T07:31:48;100878.28;;;2.21;82.29
14253;BME280;7210;51.502;10.722;2023-04-03T07:34:15;100902.53;;;2.31;82.33
14253;BME280;7210;51.502;10.722;2023-04-03T07:36:42;100916.66;;;2.38;82.30
14253;BME280;7210;51.502;10.722;2023-04-03T07:39:09;100929.53;;;2.49;82.23
14253;BME280;7210;51.502;10.722;2023-04-03T07:41:36;101028.81;;;3.13;82.60
14253;BME280;7210;51.502;10.722;2023-04-03T07:44:05;100902.59;;;2.85;81.58
14253;BME280;7210;51.502;10.722;2023-04-03T07:46:35;100868.16;;;2.72;81.29
14253;BME280;7210;51.502;10.722;2023-04-03T07:49:02;100885.19;;;2.76;81.28
14253;BME280;7210;51.502;10.722;2023-04-03T07:51:30;100920.53;;;2.98;81.03
14253;BME280;7210;51.502;10.722;2023-04-03T07:53:57;100912.47;;;3.09;80.54
14253;BME280;7210;51.502;10.722;2023-04-03T07:56:24;100893.16;;;3.19;80.16
14253;BME280;7210;51.502;10.722;2023-04-03T07:58:52;100874.44;;;3.24;79.49
14253;BME280;7210;51.502;10.722;2023-04-03T08:01:20;100802.31;;;3.13;78.96
14253;BME280;7210;51.502;10.722;2023-04-03T08:03:48;100815.19;;;3.24;78.74
14253;BME280;7210;51.502;10.722;2023-04-03T08:06:15;100835.84;;;3.35;78.78
14253;BME280;7210;51.502;10.722;2023-04-03T08:08:42;100881.47;;;3.58;78.77
14253;BME280;7210;51.502;10.722;2023-04-03T08:11:10;100820.66;;;3.56;78.14
14253;BME280;7210;51.502;10.722;2023-04-03T08:13:38;100798.63;;;3.58;77.60
14253;BME280;7210;51.502;10.722;2023-04-03T08:16:10;100829.34;;;3.82;77.12
14253;BME280;7210;51.502;10.722;2023-04-03T08:18:39;100794.78;;;3.96;76.30
14253;BME280;7210;51.502;10.722;2023-04-03T08:21:08;100767.41;;;4.08;75.58
14253;BME280;7210;51.502;10.722;2023-04-03T08:23:35;100723.56;;;4.10;74.81
14253;BME280;7210;51.502;10.722;2023-04-03T08:26:08;100665.69;;;4.13;74.40
14253;BME280;7210;51.502;10.722;2023-04-03T08:28:35;100679.13;;;4.18;74.26
14253;BME280;7210;51.502;10.722;2023-04-03T08:31:11;100652.97;;;4.26;73.81
14253;BME280;7210;51.502;10.722;2023-04-03T08:33:40;100612.06;;;4.17;73.35
14253;BME280;7210;51.502;10.722;2023-04-03T08:36:18;100643.78;;;4.30;73.32
14253;BME280;7210;51.502;10.722;2023-04-03T08:38:46;100671.66;;;4.39;73.30
14253;BME280;7210;51.502;10.722;2023-04-03T08:41:20;100654.34;;;4.54;72.90
14253;BME280;7210;51.502;10.722;2023-04-03T08:44:10;100610.47;;;4.64;71.83
14253;BME280;7210;51.502;10.722;2023-04-03T08:46:57;100531.94;;;4.56;71.17
14253;BME280;7210;51.502;10.722;2023-04-03T08:49:32;100506.72;;;4.63;70.80
14253;BME280;7210;51.502;10.722;2023-04-03T08:52:05;100567.56;;;4.81;70.98
14253;BME280;7210;51.502;10.722;2023-04-03T08:54:49;100504.34;;;4.84;70.13
14253;BME280;7210;51.502;10.722;2023-04-03T08:57:26;100470.00;;;4.79;70.00
14253;BME280;7210;51.502;10.722;2023-04-03T08:59:58;100441.88;;;4.73;69.41
14253;BME280;7210;51.502;10.722;2023-04-03T09:02:32;100435.16;;;4.70;69.46
14253;BME280;7210;51.502;10.722;2023-04-03T09:05:11;100388.25;;;4.53;69.33
14253;BME280;7210;51.502;10.722;2023-04-03T09:07:44;100359.84;;;4.34;69.23
14253;BME280;7210;51.502;10.722;2023-04-03T09:10:14;100406.47;;;4.30;69.69
14253;BME280;7210;51.502;10.722;2023-04-03T09:12:46;100451.78;;;4.39;69.82
14253;BME280;7210;51.502;10.722;2023-04-03T09:15:20;100447.69;;;4.36;69.96
14253;BME280;7210;51.502;10.722;2023-04-03T09:17:59;100424.94;;;4.37;69.37
14253;BME280;7210;51.502;10.722;2023-04-03T09:20:43;100553.66;;;4.64;70.06
14253;BME280;7210;51.502;10.722;2023-04-03T09:23:22;100439.81;;;4.44;69.22
14253;BME280;7210;51.502;10.722;2023-04-03T09:25:58;100352.00;;;4.26;68.92
14253;BME280;7210;51.502;10.722;2023-04-03T09:28:32;100418.56;;;4.31;68.94
14253;BME280;7210;51.502;10.722;2023-04-03T09:31:13;100567.94;;;4.62;69.40
14253;BME280;7210;51.502;10.722;2023-04-03T09:33:43;100711.00;;;5.11;69.58
14253;BME280;7210;51.502;10.722;2023-04-03T09:36:12;100760.44;;;5.54;69.07
14253;BME280;7210;51.502;10.722;2023-04-03T09:38:40;100636.25;;;5.47;68.16
14253;BME280;7210;51.502;10.722;2023-04-03T09:41:16;100603.09;;;5.54;67.67
14253;BME280;7210;51.502;10.722;2023-04-03T09:43:53;100696.16;;;5.82;68.09
14253;BME280;7210;51.502;10.722;2023-04-03T09:46:30;100467.06;;;5.51;66.43
14253;BME280;7210;51.502;10.722;2023-04-03T09:49:00;100414.38;;;5.38;66.35
14253;BME280;7210;51.502;10.722;2023-04-03T09:51:30;100409.84;;;5.32;66.16
14253;BME280;7210;51.502;10.722;2023-04-03T09:53:58;100321.84;;;5.07;65.88
14253;BME280;7210;51.502;10.722;2023-04-03T09:56:28;100329.47;;;4.94;66.58
14253;BME280;7210;51.502;10.722;2023-04-03T09:59:14;100319.38;;;4.83;66.41
14253;BME280;7210;51.502;10.722;2023-04-03T10:01:57;100354.16;;;4.69;67.19
14253;BME280;7210;51.502;10.722;2023-04-03T10:04:24;100409.00;;;4.62;67.56
14253;BME280;7210;51.502;10.722;2023-04-03T10:06:55;100569.06;;;4.75;68.87
14253;BME280;7210;51.502;10.722;2023-04-03T10:09:24;100598.97;;;4.97;68.05
14253;BME280;7210;51.502;10.722;2023-04-03T10:12:03;100661.84;;;5.29;67.06
14253;BME280;7210;51.502;10.722;2023-04-03T10:14:32;100739.13;;;5.73;67.13
14253;BME280;7210;51.502;10.722;2023-04-03T10:17:17;100775.59;;;6.22;66.17
14253;BME280;7210;51.502;10.722;2023-04-03T10:19:51;100703.50;;;6.33;65.66
14253;BME280;7210;51.502;10.722;2023-04-03T10:22:33;100527.91;;;6.07;65.08
14253;BME280;7210;51.502;10.722;2023-04-03T10:25:17;100453.72;;;5.91;64.75
14253;BME280;7210;51.502;10.722;2023-04-03T10:27:53;100426.84;;;5.66;65.29
14253;BME280;7210;51.502;10.722;2023-04-03T10:30:42;100472.91;;;5.61;65.70
14253;BME280;7210;51.502;10.722;2023-04-03T10:33:30;100448.66;;;5.59;64.79
14253;BME280;7210;51.502;10.722;2023-04-03T10:36:15;100497.50;;;5.60;65.06
14253;BME280;7210;51.502;10.722;2023-04-03T10:38:57;100502.66;;;5.76;64.64
14253;BME280;7210;51.502;10.722;2023-04-03T10:41:40;100473.00;;;5.75;64.67
14253;BME280;7210;51.502;10.722;2023-04-03T10:44:20;100437.03;;;5.61;64.51
14253;BME280;7210;51.502;10.722;2023-04-03T10:46:59;100521.22;;;5.74;64.66
14253;BME280;7210;51.502;10.722;2023-04-03T10:49:44;100557.88;;;5.90;64.57
14253;BME280;7210;51.502;10.722;2023-04-03T10:52:22;100611.88;;;6.15;64.33
14253;BME280;7210;51.502;10.722;2023-04-03T10:55:02;100521.13;;;6.13;63.72
14253;BME280;7210;51.502;10.722;2023-04-03T10:57:34;100564.66;;;6.30;63.48
14253;BME280;7210;51.502;10.722;2023-04-03T11:00:06;100571.53;;;6.31;63.96
14253;BME280;7210;51.502;10.722;2023-04-03T11:02:40;100529.53;;;6.31;63.68
14253;BME280;7210;51.502;10.722;2023-04-03T11:05:24;100519.94;;;6.38;63.21
14253;BME280;7210;51.502;10.722;2023-04-03T11:07:56;100479.47;;;6.32;63.10
14253;BME280;7210;51.502;10.722;2023-04-03T11:10:33;100639.47;;;6.56;63.73
14253;BME280;7210;51.502;10.722;2023-04-03T11:13:10;100637.72;;;6.71;63.35
14253;BME280;7210;51.502;10.722;2023-04-03T11:15:38;100586.56;;;6.82;62.36
14253;BME280;7210;51.502;10.722;2023-04-03T11:18:12;100561.22;;;6.89;62.26
14253;BME280;7210;51.502;10.722;2023-04-03T11:20:47;100587.88;;;7.15;61.71
14253;BME280;7210;51.502;10.722;2023-04-03T11:23:24;100385.69;;;7.20;59.37
14253;BME280;7210;51.502;10.722;2023-04-03T11:25:59;100447.19;;;7.39;59.38
14253;BME280;7210;51.502;10.722;2023-04-03T11:28:31;100443.53;;;7.55;59.19
14253;BME280;7210;51.502;10.722;2023-04-03T11:31:13;100281.38;;;7.27;58.82
14253;BME280;7210;51.502;10.722;2023-04-03T11:33:51;100344.72;;;7.31;58.99
14253;BME280;7210;51.502;10.722;2023-04-03T11:36:25;100204.25;;;6.99;58.78
14253;BME280;7210;51.502;10.722;2023-04-03T11:38:57;100302.09;;;7.15;59.11
14253;BME280;7210;51.502;10.722;2023-04-03T11:41:31;100290.00;;;7.00;59.50
14253;BME280;7210;51.502;10.722;2023-04-03T11:44:01;100257.78;;;6.91;59.28
14253;BME280;7210;51.502;10.722;2023-04-03T11:46:53;100238.53;;;6.70;59.82
14253;BME280;7210;51.502;10.722;2023-04-03T11:49:58;100268.41;;;6.69;59.64
14253;BME280;7210;51.502;10.722;2023-04-03T11:53:00;100292.50;;;6.72;59.60
14253;BME280;7210;51.502;10.722;2023-04-03T11:55:57;100287.56;;;6.63;59.96
14253;BME280;7210;51.502;10.722;2023-04-03T11:58:30;100311.22;;;6.63;59.94
14253;BME280;7210;51.502;10.722;2023-04-03T12:01:05;100148.34;;;6.27;59.12
14253;BME280;7210;51.502;10.722;2023-04-03T12:04:07;100324.81;;;6.37;60.45
14253;BME280;7210;51.502;10.722;2023-04-03T12:07:13;100274.81;;;6.31;59.79
14253;BME280;7210;51.502;10.722;2023-04-03T12:10:17;100373.53;;;6.54;59.84
14253;BME280;7210;51.502;10.722;2023-04-03T12:12:57;100434.31;;;6.95;59.08
14253;BME280;7210;51.502;10.722;2023-04-03T12:15:53;100348.03;;;7.19;57.72
14253;BME280;7210;51.502;10.722;2023-04-03T12:18:42;100252.44;;;7.06;57.24
14253;BME280;7210;51.502;10.722;2023-04-03T12:21:11;100183.22;;;6.99;56.77
14253;BME280;7210;51.502;10.722;2023-04-03T12:24:02;100127.28;;;6.84;57.21
14253;BME280;7210;51.502;10.722;2023-04-03T12:26:50;100038.69;;;6.50;56.96
14253;BME280;7210;51.502;10.722;2023-04-03T12:29:24;100169.09;;;6.58;57.88
14253;BME280;7210;51.502;10.722;2023-04-03T12:32:12;100198.25;;;6.84;57.12
14253;BME280;7210;51.502;10.722;2023-04-03T12:35:01;100478.66;;;7.47;57.66
14253;BME280;7210;51.502;10.722;2023-04-03T12:38:33;100398.72;;;8.11;54.94
14253;BME280;7210;51.502;10.722;2023-04-03T12:41:28;100478.13;;;8.57;55.27
14253;BME280;7210;51.502;10.722;2023-04-03T12:44:24;100288.63;;;8.28;55.03
14253;BME280;7210;51.502;10.722;2023-04-03T12:47:01;100310.91;;;8.25;55.38
14253;BME280;7210;51.502;10.722;2023-04-03T12:49:39;100477.72;;;8.60;55.39
14253;BME280;7210;51.502;10.722;2023-04-03T12:52:22;100149.31;;;8.05;54.52
14253;BME280;7210;51.502;10.722;2023-04-03T12:54:53;100088.84;;;7.71;54.52
14253;BME280;7210;51.502;10.722;2023-04-03T12:57:24;100214.22;;;7.85;55.31
14253;BME280;7210;51.502;10.722;2023-04-03T12:59:52;100209.00;;;7.92;54.97
14253;BME280;7210;51.502;10.722;2023-04-03T13:02:27;100037.00;;;7.65;53.75
14253;BME280;7210;51.502;10.722;2023-04-03T13:04:58;100022.94;;;7.45;54.21
14253;BME280;7210;51.502;10.722;2023-04-03T13:07:30;99923.75;;;7.27;53.55
14253;BME280;7210;51.502;10.722;2023-04-03T13:10:14;100102.22;;;7.36;54.68
14253;BME280;7210;51.502;10.722;2023-04-03T13:12:48;100169.16;;;7.67;54.17
14253;BME280;7210;51.502;10.722;2023-04-03T13:15:20;100298.78;;;8.03;54.27
14253;BME280;7210;51.502;10.722;2023-04-03T13:17:50;100098.19;;;7.87;53.25
14253;BME280;7210;51.502;10.722;2023-04-03T13:20:25;99994.22;;;7.44;53.88
14253;BME280;7210;51.502;10.722;2023-04-03T13:22:59;100010.78;;;7.44;53.90
14253;BME280;7210;51.502;10.722;2023-04-03T13:25:31;100152.53;;;7.60;53.94
14253;BME280;7210;51.502;10.722;2023-04-03T13:28:02;100279.44;;;7.90;54.38
14253;BME280;7210;51.502;10.722;2023-04-03T13:30:33;100252.47;;;8.15;53.03